createdAt,value
2022-07-25T00:02:20.761Z,10.40
2022-07-25T00:04:49.357Z,10.80
2022-07-25T00:07:17.451Z,10.90
2022-07-25T00:09:45.539Z,10.27
2022-07-25T00:12:14.087Z,11.60
2022-07-25T00:14:43.321Z,16.30
2022-07-25T00:17:11.284Z,12.90
2022-07-25T00:19:39.568Z,11.30
2022-07-25T00:22:07.871Z,12.07
2022-07-25T00:24:36.685Z,11.10
2022-07-25T00:27:04.597Z,12.97
2022-07-25T00:29:32.483Z,11.50
2022-07-25T00:32:01.675Z,15.10
2022-07-25T00:34:29.604Z,12.37
2022-07-25T00:36:57.481Z,13.07
2022-07-25T00:39:25.406Z,14.10
2022-07-25T00:41:53.318Z,15.27
2022-07-25T00:44:25.619Z,12.33
2022-07-25T00:46:53.656Z,16.37
2022-07-25T00:49:23.059Z,17.97
2022-07-25T00:51:51.224Z,17.77
2022-07-25T00:54:19.604Z,14.60
2022-07-25T00:56:48.392Z,12.53
2022-07-25T00:59:17.138Z,12.57
2022-07-25T01:01:48.072Z,10.23
2022-07-25T01:04:17.054Z,14.13
2022-07-25T01:06:46.896Z,11.33
2022-07-25T01:09:15.407Z,11.23
2022-07-25T01:11:43.583Z,13.47
2022-07-25T01:14:11.572Z,12.20
2022-07-25T01:16:41.021Z,11.23
2022-07-25T01:19:09.059Z,11.93
2022-07-25T01:21:41.245Z,11.47
2022-07-25T01:24:10.558Z,10.70
2022-07-25T01:26:39.119Z,13.43
2022-07-25T01:29:07.150Z,13.00
2022-07-25T01:31:35.117Z,10.27
2022-07-25T01:34:03.653Z,9.60
2022-07-25T01:36:31.856Z,10.17
2022-07-25T01:39:01.187Z,11.47
2022-07-25T01:41:29.036Z,9.23
2022-07-25T01:43:56.959Z,14.03
2022-07-25T01:46:24.935Z,12.80
2022-07-25T01:48:52.936Z,12.47
2022-07-25T01:51:20.977Z,10.10
2022-07-25T01:53:49.654Z,13.77
2022-07-25T01:56:20.836Z,10.10
2022-07-25T01:58:50.433Z,13.50
2022-07-25T02:01:19.470Z,11.97
2022-07-25T02:03:49.956Z,10.07
2022-07-25T02:06:19.345Z,11.93
2022-07-25T02:08:47.320Z,12.53
2022-07-25T02:11:16.008Z,11.77
2022-07-25T02:13:45.304Z,12.80
2022-07-25T02:16:13.240Z,9.97
2022-07-25T02:18:42.276Z,15.10
2022-07-25T02:21:14.047Z,11.03
2022-07-25T02:23:42.975Z,12.90
2022-07-25T02:26:11.506Z,9.60
2022-07-25T02:28:39.533Z,10.37
2022-07-25T02:31:09.459Z,10.57
2022-07-25T02:33:38.172Z,10.57
2022-07-25T02:36:06.625Z,10.87
2022-07-25T02:38:34.530Z,10.97
2022-07-25T02:41:02.469Z,11.23
2022-07-25T02:43:31.013Z,11.63
2022-07-25T02:45:59.013Z,11.30
2022-07-25T02:48:28.394Z,12.30
2022-07-25T02:50:56.603Z,9.47
2022-07-25T02:53:46.786Z,17.10
2022-07-25T02:56:12.386Z,13.37
2022-07-25T02:58:42.127Z,11.70
2022-07-25T03:01:10.100Z,10.57
2022-07-25T03:03:39.387Z,10.57
2022-07-25T03:06:07.626Z,11.40
2022-07-25T03:08:35.572Z,12.03
2022-07-25T03:11:03.628Z,11.93
2022-07-25T03:13:33.113Z,9.90
2022-07-25T03:16:01.396Z,12.40
2022-07-25T03:18:29.328Z,12.33
2022-07-25T03:20:58.611Z,11.37
2022-07-25T03:23:27.347Z,11.57
2022-07-25T03:25:55.611Z,14.07
2022-07-25T03:28:24.609Z,14.20
2022-07-25T03:30:53.016Z,9.87
2022-07-25T03:33:21.260Z,11.73
2022-07-25T03:35:49.362Z,13.73
2022-07-25T03:38:18.762Z,11.30
2022-07-25T03:40:46.722Z,10.17
2022-07-25T03:43:14.776Z,11.60
2022-07-25T03:45:42.893Z,12.33
2022-07-25T03:48:10.832Z,11.57
2022-07-25T03:50:38.740Z,14.40
2022-07-25T03:53:06.636Z,12.80
2022-07-25T03:55:40.666Z,11.83
2022-07-25T03:58:08.687Z,13.60
2022-07-25T04:00:36.957Z,11.40
2022-07-25T04:03:05.022Z,13.87
2022-07-25T04:05:32.919Z,14.90
2022-07-25T04:08:00.837Z,14.47
2022-07-25T04:10:28.953Z,11.47
2022-07-25T04:12:58.161Z,13.63
2022-07-25T04:15:26.194Z,12.40
2022-07-25T04:17:54.031Z,13.70
2022-07-25T04:20:23.313Z,14.53
2022-07-25T04:22:51.164Z,12.67
2022-07-25T04:25:19.041Z,13.90
2022-07-25T04:27:46.886Z,16.43
2022-07-25T04:30:24.421Z,11.63
2022-07-25T04:32:53.498Z,12.57
2022-07-25T04:35:21.787Z,10.70
2022-07-25T04:37:50.215Z,11.30
2022-07-25T04:40:18.208Z,11.73
2022-07-25T04:42:46.052Z,19.23
2022-07-25T04:45:14.103Z,13.03
2022-07-25T04:48:10.462Z,12.03
2022-07-25T04:50:38.433Z,14.70
2022-07-25T04:53:06.809Z,13.30
2022-07-25T04:55:36.220Z,15.97
2022-07-25T04:58:04.116Z,11.30
2022-07-25T05:00:32.444Z,11.97
2022-07-25T05:03:00.627Z,10.47
2022-07-25T05:05:29.898Z,15.07
2022-07-25T05:07:59.344Z,12.93
2022-07-25T05:10:28.307Z,12.43
2022-07-25T05:12:56.413Z,16.87
2022-07-25T05:15:24.862Z,14.70
2022-07-25T05:17:52.765Z,12.87
2022-07-25T05:20:20.844Z,15.23
2022-07-25T05:22:50.289Z,10.93
2022-07-25T05:25:18.315Z,12.03
2022-07-25T05:27:46.779Z,13.77
2022-07-25T05:30:15.673Z,12.87
2022-07-25T05:32:43.662Z,13.80
2022-07-25T05:35:12.008Z,15.07
2022-07-25T05:37:39.997Z,12.87
2022-07-25T05:40:09.780Z,15.57
2022-07-25T05:42:37.767Z,14.80
2022-07-25T05:45:06.631Z,27.90
2022-07-25T05:47:34.538Z,27.73
2022-07-25T05:50:03.149Z,16.17
2022-07-25T05:52:31.043Z,16.40
2022-07-25T05:54:58.886Z,15.17
2022-07-25T05:57:28.318Z,14.37
2022-07-25T05:59:56.180Z,17.10
2022-07-25T06:02:24.608Z,14.83
2022-07-25T06:04:52.566Z,14.63
2022-07-25T06:07:20.469Z,15.33
2022-07-25T06:09:48.376Z,15.80
2022-07-25T06:12:16.330Z,14.83
2022-07-25T06:14:45.615Z,18.57
2022-07-25T06:17:13.533Z,17.10
2022-07-25T06:19:41.515Z,17.00
2022-07-25T06:22:09.620Z,12.50
2022-07-25T06:24:37.495Z,18.90
2022-07-25T06:27:05.801Z,13.63
2022-07-25T06:29:33.784Z,11.97
2022-07-25T06:32:03.102Z,17.03
2022-07-25T06:34:31.067Z,11.70
2022-07-25T06:36:59.407Z,13.27
2022-07-25T06:39:28.131Z,15.13
2022-07-25T06:41:56.076Z,14.03
2022-07-25T06:44:27.712Z,14.73
2022-07-25T06:46:55.681Z,12.07
2022-07-25T06:49:25.101Z,11.50
2022-07-25T06:51:53.015Z,11.50
2022-07-25T06:54:21.115Z,12.80
2022-07-25T06:56:49.250Z,14.30
2022-07-25T06:59:17.147Z,11.57
2022-07-25T07:01:49.506Z,13.53
2022-07-25T07:04:19.471Z,13.33
2022-07-25T07:06:48.643Z,13.73
2022-07-25T07:09:16.573Z,17.60
2022-07-25T07:11:44.531Z,14.50
2022-07-25T07:14:12.453Z,11.53
2022-07-25T07:16:41.355Z,13.27
2022-07-25T07:19:11.011Z,16.60
2022-07-25T07:21:38.991Z,13.37
2022-07-25T07:24:24.076Z,12.93
2022-07-25T07:26:53.460Z,11.13
2022-07-25T07:29:21.707Z,13.43
2022-07-25T07:31:49.735Z,11.20
2022-07-25T07:34:17.680Z,12.23
2022-07-25T07:36:45.654Z,11.03
2022-07-25T07:39:16.518Z,10.67
2022-07-25T07:41:45.171Z,13.00
2022-07-25T07:44:13.047Z,15.03
2022-07-25T07:46:41.010Z,12.33
2022-07-25T07:49:09.357Z,12.60
2022-07-25T07:51:37.727Z,12.37
2022-07-25T07:54:23.883Z,14.43
2022-07-25T07:56:53.268Z,13.97
2022-07-25T07:59:22.011Z,10.43
2022-07-25T08:01:49.968Z,17.53
2022-07-25T08:04:17.867Z,11.70
2022-07-25T08:06:45.743Z,13.83
2022-07-25T08:09:13.901Z,13.90
2022-07-25T08:11:41.794Z,13.27
2022-07-25T08:14:11.048Z,10.87
2022-07-25T08:16:39.025Z,11.83
2022-07-25T08:19:07.196Z,13.57
2022-07-25T08:21:35.132Z,13.60
2022-07-25T08:24:03.171Z,12.60
2022-07-25T08:26:33.859Z,10.47
2022-07-25T08:29:18.289Z,14.27
2022-07-25T08:31:48.795Z,11.27
2022-07-25T08:34:16.767Z,10.73
2022-07-25T08:36:44.636Z,12.10
2022-07-25T08:39:13.420Z,15.07
2022-07-25T08:41:42.245Z,11.57
2022-07-25T08:44:10.787Z,12.27
2022-07-25T08:46:41.535Z,11.53
2022-07-25T08:49:11.575Z,13.10
2022-07-25T08:51:40.934Z,14.97
2022-07-25T08:54:10.182Z,13.27
2022-07-25T08:56:38.379Z,16.63
2022-07-25T08:59:06.361Z,11.00
2022-07-25T09:01:35.050Z,12.93
2022-07-25T09:04:05.358Z,12.93
2022-07-25T09:06:34.995Z,15.57
2022-07-25T09:09:04.948Z,9.83
2022-07-25T09:11:34.666Z,12.17
2022-07-25T09:14:06.027Z,12.73
2022-07-25T09:16:40.128Z,11.93
2022-07-25T09:19:13.790Z,12.20
2022-07-25T09:21:45.611Z,14.23
2022-07-25T09:24:16.052Z,10.43
2022-07-25T09:26:49.215Z,12.67
2022-07-25T09:29:22.426Z,9.33
2022-07-25T09:31:51.283Z,10.53
2022-07-25T09:34:31.937Z,8.57
2022-07-25T09:37:01.661Z,9.03
2022-07-25T09:39:45.988Z,10.77
2022-07-25T09:42:23.041Z,10.70
2022-07-25T09:45:06.656Z,10.23
2022-07-25T09:47:37.066Z,11.83
2022-07-25T09:50:06.777Z,7.23
2022-07-25T09:52:36.758Z,10.73
2022-07-25T09:55:06.570Z,7.17
2022-07-25T09:57:34.521Z,6.60
2022-07-25T10:00:02.878Z,4.77
2022-07-25T10:02:49.777Z,7.37
2022-07-25T10:05:26.831Z,6.20
2022-07-25T10:07:56.780Z,5.00
2022-07-25T10:10:30.692Z,8.10
2022-07-25T10:13:07.827Z,4.70
2022-07-25T10:15:42.894Z,5.40
2022-07-25T10:18:11.134Z,9.23
2022-07-25T10:20:39.369Z,5.30
2022-07-25T10:23:23.284Z,5.53
2022-07-25T10:26:08.332Z,4.90
2022-07-25T10:28:39.588Z,5.90
2022-07-25T10:31:17.591Z,4.53
2022-07-25T10:33:49.808Z,4.10
2022-07-25T10:36:18.315Z,6.20
2022-07-25T10:38:47.795Z,7.03
2022-07-25T10:41:17.455Z,9.07
2022-07-25T10:43:48.693Z,7.90
2022-07-25T10:46:20.494Z,4.90
2022-07-25T10:48:59.223Z,8.77
2022-07-25T10:51:29.410Z,4.20
2022-07-25T10:54:01.347Z,5.07
2022-07-25T10:56:30.082Z,6.93
2022-07-25T10:58:59.096Z,5.17
2022-07-25T11:01:29.849Z,5.30
2022-07-25T11:03:59.766Z,4.57
2022-07-25T11:06:32.886Z,4.93
2022-07-25T11:09:03.283Z,5.60
2022-07-25T11:11:36.815Z,6.23
2022-07-25T11:14:05.500Z,4.47
2022-07-25T11:16:33.457Z,8.07
2022-07-25T11:19:01.871Z,5.77
2022-07-25T11:21:29.753Z,3.70
2022-07-25T11:23:57.633Z,5.87
2022-07-25T11:26:26.977Z,4.97
2022-07-25T11:28:54.875Z,10.73
2022-07-25T11:31:24.049Z,5.23
2022-07-25T11:33:52.217Z,7.60
2022-07-25T11:36:20.919Z,9.47
2022-07-25T11:38:50.234Z,5.23
2022-07-25T11:41:30.586Z,4.70
2022-07-25T11:43:58.498Z,4.53
2022-07-25T11:46:26.965Z,4.90
2022-07-25T11:49:07.503Z,4.57
2022-07-25T11:51:39.692Z,5.73
2022-07-25T11:54:13.279Z,4.60
2022-07-25T11:56:43.948Z,5.60
2022-07-25T11:59:12.542Z,4.90
2022-07-25T12:01:42.131Z,4.60
2022-07-25T12:04:12.090Z,4.70
2022-07-25T12:06:40.482Z,7.80
2022-07-25T12:09:18.299Z,8.00
2022-07-25T12:11:50.137Z,4.97
2022-07-25T12:14:18.076Z,4.50
2022-07-25T12:16:46.061Z,4.73
2022-07-25T12:19:21.500Z,3.87
2022-07-25T12:21:49.371Z,6.17
2022-07-25T12:24:17.269Z,8.83
2022-07-25T12:26:45.212Z,4.57
2022-07-25T12:29:14.560Z,5.87
2022-07-25T12:31:42.579Z,7.97
2022-07-25T12:34:10.528Z,5.40
2022-07-25T12:36:44.104Z,6.60
2022-07-25T12:39:12.322Z,8.77
2022-07-25T12:41:42.593Z,7.60
2022-07-25T12:44:11.270Z,7.43
2022-07-25T12:46:47.152Z,5.90
2022-07-25T12:49:17.299Z,5.17
2022-07-25T12:51:45.338Z,5.80
2022-07-25T12:54:14.096Z,5.87
2022-07-25T12:56:44.236Z,5.17
2022-07-25T12:59:12.257Z,5.57
2022-07-25T13:01:41.534Z,5.50
2022-07-25T13:04:10.332Z,6.93
2022-07-25T13:06:39.141Z,5.67
2022-07-25T13:09:07.999Z,8.93
2022-07-25T13:11:36.145Z,8.20
2022-07-25T13:14:04.680Z,7.83
2022-07-25T13:16:34.159Z,5.90
2022-07-25T13:19:03.790Z,5.80
2022-07-25T13:21:32.089Z,9.10
2022-07-25T13:24:00.028Z,6.47
2022-07-25T13:26:28.056Z,5.40
2022-07-25T13:29:04.876Z,9.27
2022-07-25T13:31:36.205Z,6.47
2022-07-25T13:34:05.598Z,7.07
2022-07-25T13:36:36.069Z,6.10
2022-07-25T13:39:05.026Z,9.47
2022-07-25T13:41:33.785Z,10.23
2022-07-25T13:44:02.255Z,9.60
2022-07-25T13:46:30.158Z,10.47
2022-07-25T13:48:58.045Z,6.70
2022-07-25T13:51:27.375Z,10.83
2022-07-25T13:53:55.457Z,9.57
2022-07-25T13:56:23.396Z,7.47
2022-07-25T13:58:51.280Z,7.97
2022-07-25T14:01:19.221Z,8.23
2022-07-25T14:03:47.418Z,9.83
2022-07-25T14:06:15.320Z,7.83
2022-07-25T14:08:44.720Z,10.70
2022-07-25T14:11:12.661Z,6.87
2022-07-25T14:13:40.556Z,8.03
2022-07-25T14:16:08.890Z,7.73
2022-07-25T14:18:36.889Z,6.80
2022-07-25T14:21:04.975Z,9.47
2022-07-25T14:23:32.888Z,7.83
2022-07-25T14:26:02.179Z,7.47
2022-07-25T14:28:30.737Z,12.20
2022-07-25T14:31:00.004Z,12.37
2022-07-25T14:33:27.926Z,8.27
2022-07-25T14:35:56.254Z,8.33
2022-07-25T14:38:24.190Z,8.23
2022-07-25T14:40:52.724Z,8.97
2022-07-25T14:43:21.939Z,7.90
2022-07-25T14:45:49.851Z,13.80
2022-07-25T14:48:17.764Z,13.23
2022-07-25T14:50:45.677Z,9.53
2022-07-25T14:53:14.780Z,8.30
2022-07-25T14:55:42.691Z,12.03
2022-07-25T14:58:10.664Z,9.20
2022-07-25T15:00:43.331Z,10.90
2022-07-25T15:03:11.273Z,11.20
2022-07-25T15:05:39.467Z,8.33
2022-07-25T15:08:07.659Z,9.40
2022-07-25T15:10:35.696Z,9.80
2022-07-25T15:13:29.480Z,7.33
2022-07-25T15:15:52.941Z,7.77
2022-07-25T15:18:20.966Z,10.27
2022-07-25T15:20:48.820Z,9.83
2022-07-25T15:23:16.766Z,8.13
2022-07-25T15:26:01.198Z,8.40
2022-07-25T15:28:30.770Z,9.07
2022-07-25T15:31:00.202Z,7.80
2022-07-25T15:33:28.328Z,7.93
2022-07-25T15:35:56.598Z,7.70
2022-07-25T15:38:24.642Z,13.10
2022-07-25T15:40:52.934Z,11.63
2022-07-25T15:43:20.875Z,7.70
2022-07-25T15:45:48.880Z,14.87
2022-07-25T15:48:19.233Z,9.67
2022-07-25T15:50:48.545Z,9.00
2022-07-25T15:53:16.509Z,7.30
2022-07-25T15:55:44.848Z,9.17
2022-07-25T15:58:13.255Z,8.60
2022-07-25T16:00:41.531Z,7.07
2022-07-25T16:03:10.046Z,7.70
2022-07-25T16:05:39.974Z,7.00
2022-07-25T16:08:09.942Z,7.23
2022-07-25T16:10:38.315Z,14.23
2022-07-25T16:13:07.080Z,7.77
2022-07-25T16:15:35.015Z,8.53
2022-07-25T16:18:03.300Z,6.83
2022-07-25T16:20:32.388Z,9.17
2022-07-25T16:23:02.729Z,6.83
2022-07-25T16:25:31.278Z,7.40
2022-07-25T16:28:00.184Z,8.73
2022-07-25T16:30:28.701Z,7.27
2022-07-25T16:32:56.712Z,9.23
2022-07-25T16:35:24.889Z,10.90
2022-07-25T16:37:52.948Z,8.80
2022-07-25T16:40:28.683Z,10.03
2022-07-25T16:42:59.505Z,15.47
2022-07-25T16:45:28.268Z,8.23
2022-07-25T16:47:56.303Z,9.77
2022-07-25T16:50:24.320Z,7.10
2022-07-25T16:52:53.609Z,9.77
2022-07-25T16:55:23.041Z,8.87
2022-07-25T16:57:51.159Z,9.17
2022-07-25T17:00:19.225Z,11.30
2022-07-25T17:02:47.115Z,9.43
2022-07-25T17:05:15.037Z,7.37
2022-07-25T17:07:43.209Z,9.20
2022-07-25T17:10:11.696Z,8.37
2022-07-25T17:12:40.976Z,7.10
2022-07-25T17:15:10.084Z,7.30
2022-07-25T17:17:38.015Z,10.70
2022-07-25T17:20:06.829Z,10.43
2022-07-25T17:22:34.822Z,6.60
2022-07-25T17:25:02.780Z,7.07
2022-07-25T17:27:31.172Z,7.73
2022-07-25T17:30:00.394Z,5.73
2022-07-25T17:32:30.139Z,11.07
2022-07-25T17:34:58.322Z,7.97
2022-07-25T17:37:27.718Z,5.97
2022-07-25T17:39:55.806Z,7.00
2022-07-25T17:42:23.982Z,8.93
2022-07-25T17:44:52.482Z,7.93
2022-07-25T17:47:23.014Z,7.50
2022-07-25T17:49:51.051Z,12.23
2022-07-25T17:52:18.973Z,5.30
2022-07-25T17:54:46.871Z,9.27
2022-07-25T17:57:14.756Z,13.37
2022-07-25T17:59:42.632Z,10.60
2022-07-25T18:02:59.277Z,15.23
2022-07-25T18:05:28.715Z,6.83
2022-07-25T18:07:56.744Z,10.33
2022-07-25T18:10:24.812Z,8.67
2022-07-25T18:12:53.039Z,12.43
2022-07-25T18:15:21.055Z,16.17
2022-07-25T18:17:49.846Z,19.00
2022-07-25T18:20:17.889Z,11.00
2022-07-25T18:22:47.240Z,11.37
2022-07-25T18:25:15.996Z,12.77
2022-07-25T18:27:44.964Z,12.67
2022-07-25T18:30:15.158Z,10.20
2022-07-25T18:32:43.118Z,14.13
2022-07-25T18:35:11.988Z,10.13
2022-07-25T18:37:40.236Z,11.00
2022-07-25T18:40:11.359Z,10.83
2022-07-25T18:42:39.417Z,10.93
2022-07-25T18:45:08.489Z,11.83
2022-07-25T18:47:36.356Z,10.57
2022-07-25T18:50:05.295Z,13.57
2022-07-25T18:52:35.118Z,9.37
2022-07-25T18:55:03.157Z,9.10
2022-07-25T18:57:32.691Z,7.33
2022-07-25T19:00:03.065Z,9.27
2022-07-25T19:02:31.858Z,9.57
2022-07-25T19:04:59.884Z,6.77
2022-07-25T19:07:29.754Z,10.50
2022-07-25T19:09:57.733Z,10.87
2022-07-25T19:12:27.215Z,10.03
2022-07-25T19:14:56.783Z,10.70
2022-07-25T19:17:25.122Z,13.60
2022-07-25T19:19:53.795Z,9.33
2022-07-25T19:22:21.887Z,4.43
2022-07-25T19:24:49.789Z,9.00
2022-07-25T19:27:18.149Z,7.87
2022-07-25T19:29:46.059Z,3.37
2022-07-25T19:32:17.974Z,7.13
2022-07-25T19:34:46.293Z,5.53
2022-07-25T19:37:14.256Z,9.40
2022-07-25T19:39:42.218Z,6.77
2022-07-25T19:42:12.170Z,6.97
2022-07-25T19:44:40.636Z,6.37
2022-07-25T19:47:11.605Z,5.17
2022-07-25T19:49:41.534Z,7.00
2022-07-25T19:52:10.951Z,6.53
2022-07-25T19:54:39.172Z,8.23
2022-07-25T19:57:07.313Z,6.20
2022-07-25T19:59:35.392Z,5.80
2022-07-25T20:02:04.137Z,10.50
2022-07-25T20:04:32.236Z,6.63
2022-07-25T20:07:02.329Z,4.97
2022-07-25T20:09:30.464Z,13.73
2022-07-25T20:11:58.758Z,3.23
2022-07-25T20:14:26.659Z,5.77
2022-07-25T20:16:54.669Z,5.17
2022-07-25T20:19:22.601Z,9.57
2022-07-25T20:21:50.752Z,10.20
2022-07-25T20:24:21.667Z,6.67
2022-07-25T20:26:50.013Z,6.90
2022-07-25T20:29:18.194Z,5.27
2022-07-25T20:31:46.640Z,8.80
2022-07-25T20:34:15.873Z,6.30
2022-07-25T20:36:47.396Z,4.13
2022-07-25T20:39:15.317Z,7.83
2022-07-25T20:41:44.832Z,5.67
2022-07-25T20:44:13.156Z,8.67
2022-07-25T20:46:41.036Z,6.93
2022-07-25T20:49:09.723Z,5.00
2022-07-25T20:51:40.479Z,2.43
2022-07-25T20:54:08.467Z,5.13
2022-07-25T20:56:36.356Z,7.90
2022-07-25T20:59:05.967Z,7.00
2022-07-25T21:01:34.107Z,8.87
2022-07-25T21:04:07.006Z,9.77
2022-07-25T21:06:35.441Z,5.70
2022-07-25T21:09:06.051Z,4.93
2022-07-25T21:11:35.552Z,7.60
2022-07-25T21:14:05.685Z,4.77
2022-07-25T21:16:34.561Z,8.53
2022-07-25T21:19:02.481Z,5.03
2022-07-25T21:21:30.501Z,5.57
2022-07-25T21:23:58.360Z,6.57
2022-07-25T21:26:26.375Z,6.00
2022-07-25T21:28:54.310Z,5.83
2022-07-25T21:31:23.824Z,9.57
2022-07-25T21:33:51.735Z,6.10
2022-07-25T21:36:19.659Z,5.93
2022-07-25T21:38:47.789Z,7.43
2022-07-25T21:41:16.154Z,9.13
2022-07-25T21:43:44.245Z,6.90
2022-07-25T21:46:12.295Z,6.07
2022-07-25T21:48:59.255Z,2.57
2022-07-25T21:51:36.767Z,9.83
2022-07-25T21:54:09.128Z,11.27
2022-07-25T21:56:37.496Z,6.00
2022-07-25T21:59:06.478Z,6.67
2022-07-25T22:01:34.714Z,5.07
2022-07-25T22:04:04.104Z,7.87
2022-07-25T22:06:32.064Z,3.33
2022-07-25T22:08:59.971Z,5.33
2022-07-25T22:11:42.408Z,5.50
2022-07-25T22:14:14.469Z,7.37
2022-07-25T22:16:42.394Z,4.47
2022-07-25T22:19:11.921Z,10.60
2022-07-25T22:21:40.516Z,5.67
2022-07-25T22:24:09.195Z,9.87
2022-07-25T22:26:37.713Z,10.73
2022-07-25T22:29:06.076Z,7.90
2022-07-25T22:31:34.268Z,3.43
2022-07-25T22:34:02.223Z,3.83
2022-07-25T22:36:31.591Z,3.77
2022-07-25T22:38:59.448Z,10.87
2022-07-25T22:41:27.736Z,2.83
2022-07-25T22:43:57.788Z,9.97
2022-07-25T22:46:28.031Z,4.80
2022-07-25T22:48:56.049Z,6.70
2022-07-25T22:51:24.143Z,7.00
2022-07-25T22:53:53.440Z,6.23
2022-07-25T22:56:21.775Z,2.53
2022-07-25T22:58:49.774Z,4.23
2022-07-25T23:01:17.870Z,5.90
2022-07-25T23:03:45.995Z,9.67
2022-07-25T23:06:14.115Z,8.57
2022-07-25T23:08:42.029Z,8.80
2022-07-25T23:11:11.282Z,7.37
2022-07-25T23:13:39.228Z,3.93
2022-07-25T23:16:10.171Z,4.17
2022-07-25T23:18:38.946Z,4.37
2022-07-25T23:21:07.358Z,6.17
2022-07-25T23:23:35.409Z,8.07
2022-07-25T23:26:04.448Z,4.00
2022-07-25T23:28:33.680Z,5.63
2022-07-25T23:31:01.595Z,4.73
2022-07-25T23:33:30.214Z,5.97
2022-07-25T23:35:58.245Z,3.37
2022-07-25T23:38:26.385Z,6.43
2022-07-25T23:40:54.812Z,4.57
2022-07-25T23:43:40.834Z,6.53
2022-07-25T23:46:12.002Z,3.57
2022-07-25T23:48:40.008Z,7.30
2022-07-25T23:51:08.517Z,6.27
2022-07-25T23:53:37.131Z,4.97
2022-07-25T23:56:05.517Z,5.17
2022-07-25T23:58:33.429Z,4.30
